createdAt,value
2022-12-08T08:32:41.773Z,3.69
2022-12-08T08:37:51.021Z,3.73
2022-12-08T08:40:18.681Z,3.93
2022-12-08T08:46:49.143Z,3.97
2022-12-08T08:49:16.549Z,4.21
2022-12-08T08:51:43.966Z,4.29
2022-12-08T08:54:11.462Z,4.41
2022-12-08T08:56:38.791Z,4.47
2022-12-08T08:59:06.196Z,4.64
2022-12-08T09:01:34.399Z,4.69
2022-12-08T09:04:02.021Z,4.60
2022-12-08T09:06:29.603Z,4.83
2022-12-08T09:08:57.290Z,5.00
2022-12-08T09:11:24.673Z,5.20
2022-12-08T09:13:54.210Z,5.02
2022-12-08T09:16:22.886Z,5.17
2022-12-08T09:18:50.549Z,5.46
2022-12-08T09:21:24.219Z,5.30
2022-12-08T09:23:57.549Z,5.29
2022-12-08T09:26:27.302Z,5.30
2022-12-08T09:28:56.954Z,5.54
2022-12-08T09:31:25.289Z,5.50
2022-12-08T09:33:52.822Z,5.40
2022-12-08T09:36:21.595Z,5.75
2022-12-08T09:38:51.069Z,5.67
2022-12-08T09:41:43.292Z,5.72
2022-12-08T09:45:02.530Z,5.60
2022-12-08T09:47:44.174Z,5.54
2022-12-08T09:50:31.046Z,5.51
2022-12-08T09:54:07.937Z,5.67
2022-12-08T09:56:37.813Z,5.87
2022-12-08T09:59:32.946Z,5.88
2022-12-08T10:02:09.680Z,5.96
2022-12-08T10:04:38.820Z,6.00
2022-12-08T10:07:54.957Z,5.81
2022-12-08T10:10:57.345Z,5.83
2022-12-08T10:14:14.450Z,6.07
2022-12-08T10:16:48.556Z,5.92
2022-12-08T10:19:25.420Z,6.13
2022-12-08T10:21:54.407Z,6.04
2022-12-08T10:24:41.723Z,6.22
2022-12-08T10:27:13.468Z,6.31
2022-12-08T10:29:41.314Z,6.51
2022-12-08T10:32:24.429Z,6.29
2022-12-08T10:35:12.258Z,6.56
2022-12-08T10:37:40.989Z,6.68
2022-12-08T10:40:18.302Z,6.73
2022-12-08T10:42:56.406Z,6.82
2022-12-08T10:45:37.299Z,6.92
2022-12-08T10:48:27.842Z,7.17
2022-12-08T10:50:59.221Z,6.94
2022-12-08T10:53:34.162Z,6.96
2022-12-08T10:56:04.420Z,6.88
2022-12-08T10:58:44.918Z,6.88
2022-12-08T11:01:25.543Z,7.04
2022-12-08T11:04:01.735Z,6.78
2022-12-08T11:06:37.649Z,6.45
2022-12-08T11:09:18.110Z,6.71
2022-12-08T11:11:55.326Z,6.66
2022-12-08T11:14:42.612Z,6.72
2022-12-08T11:17:21.638Z,6.50
2022-12-08T11:20:10.788Z,6.99
2022-12-08T11:22:53.186Z,7.32
2022-12-08T11:25:28.508Z,7.54
2022-12-08T11:28:01.781Z,7.56
2022-12-08T11:30:47.729Z,7.89
2022-12-08T11:33:29.153Z,8.13
2022-12-08T11:36:09.104Z,8.04
2022-12-08T11:38:47.213Z,8.33
2022-12-08T11:41:26.168Z,8.47
2022-12-08T11:44:41.037Z,8.68
2022-12-08T11:47:28.850Z,8.99
2022-12-08T11:50:32.600Z,8.77
2022-12-08T11:53:01.687Z,8.85
2022-12-08T11:55:55.148Z,9.46
2022-12-08T11:58:56.426Z,8.90
2022-12-08T12:01:26.812Z,9.04
2022-12-08T12:05:01.072Z,9.23
2022-12-08T12:08:03.754Z,9.19
2022-12-08T12:10:43.110Z,9.23
2022-12-08T12:13:58.387Z,9.11
2022-12-08T12:16:55.521Z,8.77
2022-12-08T12:19:24.330Z,8.87
2022-12-08T12:22:15.652Z,8.61
2022-12-08T12:24:49.237Z,8.80
2022-12-08T12:27:29.765Z,8.54
2022-12-08T12:30:04.177Z,8.34
2022-12-08T12:32:59.914Z,8.00
2022-12-08T12:35:47.941Z,7.65
2022-12-08T12:39:08.612Z,7.64
2022-12-08T12:41:47.850Z,7.70
2022-12-08T12:44:15.058Z,7.59
2022-12-08T12:46:51.108Z,7.39
2022-12-08T12:49:40.154Z,7.60
2022-12-08T12:52:10.182Z,7.59
2022-12-08T12:54:42.270Z,7.44
2022-12-08T12:57:09.460Z,7.40
2022-12-08T13:00:05.368Z,7.29
2022-12-08T13:02:46.060Z,6.92
2022-12-08T13:05:13.275Z,7.13
2022-12-08T13:08:07.066Z,7.08
2022-12-08T13:10:48.622Z,7.34
2022-12-08T13:13:19.031Z,7.32
2022-12-08T13:16:24.829Z,7.21
2022-12-08T13:19:02.480Z,7.05
2022-12-08T13:21:39.030Z,7.26
2022-12-08T13:24:24.364Z,6.85
2022-12-08T13:27:11.496Z,6.78
2022-12-08T13:29:40.113Z,6.51
2022-12-08T13:32:10.323Z,6.82
2022-12-08T13:35:11.882Z,6.67
2022-12-08T13:37:54.862Z,6.56
2022-12-08T13:40:30.266Z,6.24
2022-12-08T13:43:55.630Z,6.53
2022-12-08T13:47:09.806Z,6.24
2022-12-08T13:51:07.037Z,5.66
2022-12-08T13:56:59.645Z,6.07
2022-12-08T13:58:47.417Z,6.26
2022-12-08T14:01:25.022Z,6.29
2022-12-08T14:04:34.127Z,6.11
2022-12-08T14:06:59.404Z,5.61
2022-12-08T14:09:36.414Z,5.36
2022-12-08T14:12:26.464Z,5.34
2022-12-08T14:15:04.395Z,5.75
2022-12-08T14:17:33.793Z,5.58
2022-12-08T14:20:57.920Z,5.87
2022-12-08T14:23:22.847Z,6.16
2022-12-08T14:25:50.307Z,5.94
2022-12-08T14:28:18.050Z,5.69
2022-12-08T14:30:45.571Z,5.17
2022-12-08T14:33:17.514Z,5.43
2022-12-08T14:35:54.931Z,5.30
2022-12-08T14:38:26.051Z,5.20
2022-12-08T14:41:08.753Z,5.68
2022-12-08T14:43:36.496Z,5.65
2022-12-08T14:46:22.963Z,5.68
2022-12-08T14:48:50.516Z,5.66
2022-12-08T14:51:20.937Z,5.22
2022-12-08T14:54:13.375Z,5.14
2022-12-08T14:56:56.097Z,4.98
2022-12-08T14:59:39.148Z,5.18
2022-12-08T15:02:27.128Z,5.41
2022-12-08T15:05:16.011Z,5.64
2022-12-08T15:07:54.016Z,5.02
2022-12-08T15:10:31.967Z,5.37
2022-12-08T15:13:10.345Z,5.54
2022-12-08T15:15:57.767Z,5.47
2022-12-08T15:18:41.164Z,4.96
2022-12-08T15:21:13.015Z,5.33
2022-12-08T15:23:50.375Z,5.24
2022-12-08T15:26:27.412Z,5.03
2022-12-08T15:28:55.830Z,4.71
2022-12-08T15:31:23.331Z,4.59
2022-12-08T15:33:50.892Z,4.59
2022-12-08T15:36:18.220Z,4.55
2022-12-08T15:38:45.632Z,4.78
2022-12-08T15:41:15.212Z,5.25
2022-12-08T15:43:43.034Z,5.22
2022-12-08T15:46:10.555Z,5.10
2022-12-08T15:48:38.450Z,5.02
2022-12-08T15:51:05.859Z,5.02
2022-12-08T15:53:33.290Z,5.12
2022-12-08T15:58:55.609Z,4.39
2022-12-08T16:01:24.886Z,4.91
2022-12-08T16:09:47.899Z,4.65
2022-12-08T16:15:59.017Z,4.83
2022-12-08T16:18:34.484Z,4.88
2022-12-08T16:21:22.857Z,4.91
2022-12-08T16:23:49.934Z,4.77
2022-12-08T16:29:20.781Z,4.68
2022-12-08T16:31:48.474Z,4.74
2022-12-08T16:34:16.224Z,4.74
2022-12-08T16:36:43.665Z,4.71
2022-12-08T16:39:14.622Z,4.75
2022-12-08T16:42:02.346Z,4.72
2022-12-08T16:44:30.051Z,4.78
2022-12-08T16:46:57.523Z,4.82
2022-12-08T16:49:25.067Z,4.70
2022-12-08T16:51:52.524Z,4.65
2022-12-08T16:54:19.910Z,4.73
2022-12-08T16:56:47.326Z,4.78
2022-12-08T16:59:14.756Z,4.70
2022-12-08T17:01:42.164Z,4.51
2022-12-08T17:06:58.178Z,4.48
2022-12-08T17:09:28.546Z,4.31
2022-12-08T17:12:01.824Z,4.62
2022-12-08T17:14:35.501Z,4.62
2022-12-08T17:17:03.018Z,4.16
2022-12-08T17:19:30.441Z,4.46
2022-12-08T17:21:57.881Z,4.44
2022-12-08T17:24:29.027Z,4.31
2022-12-08T17:26:58.817Z,4.42
2022-12-08T17:29:26.236Z,4.04
2022-12-08T17:31:53.729Z,3.68
2022-12-08T17:34:21.208Z,3.88
2022-12-08T17:36:48.619Z,3.79
2022-12-08T17:39:18.764Z,3.88
2022-12-08T17:41:47.938Z,3.96
2022-12-08T17:44:19.431Z,3.98
2022-12-08T17:46:52.610Z,3.83
2022-12-08T17:49:29.629Z,3.45
2022-12-08T17:52:06.972Z,3.87
2022-12-08T17:54:35.867Z,3.83
2022-12-08T17:57:03.995Z,4.07
2022-12-08T17:59:32.020Z,4.03
2022-12-08T18:01:59.873Z,4.09
2022-12-08T18:04:29.223Z,4.37
2022-12-08T18:06:59.350Z,4.27
2022-12-08T18:09:26.847Z,4.37
2022-12-08T18:11:54.320Z,4.29
2022-12-08T18:14:21.924Z,3.78
2022-12-08T18:16:49.550Z,4.17
2022-12-08T18:19:17.106Z,4.32
2022-12-08T18:21:44.949Z,4.32
2022-12-08T18:24:23.450Z,4.26
2022-12-08T18:26:52.595Z,4.38
2022-12-08T18:29:22.414Z,4.16
2022-12-08T18:31:51.523Z,3.85
2022-12-08T18:34:19.132Z,3.73
2022-12-08T18:36:47.121Z,3.98
2022-12-08T18:39:30.562Z,4.18
2022-12-08T18:42:02.603Z,4.13
2022-12-08T18:44:29.978Z,4.20
2022-12-08T18:46:58.207Z,4.39
2022-12-08T18:49:26.470Z,4.33
2022-12-08T18:51:53.892Z,4.35
2022-12-08T18:54:27.661Z,4.40
2022-12-08T18:57:06.400Z,4.39
2022-12-08T18:59:33.903Z,4.49
2022-12-08T19:02:01.379Z,4.54
2022-12-08T19:04:29.529Z,4.47
2022-12-08T19:06:58.102Z,4.51
2022-12-08T19:09:26.920Z,4.60
2022-12-08T19:11:55.527Z,4.35
2022-12-08T19:14:28.114Z,4.19
2022-12-08T19:16:59.756Z,4.10
2022-12-08T19:19:28.256Z,4.46
2022-12-08T19:21:56.379Z,4.37
2022-12-08T19:24:25.261Z,4.38
2022-12-08T19:26:53.374Z,4.51
2022-12-08T19:29:20.932Z,4.46
2022-12-08T19:31:48.382Z,4.57
2022-12-08T19:34:15.850Z,4.64
2022-12-08T19:36:43.624Z,4.35
2022-12-08T19:40:01.023Z,4.28
2022-12-08T19:42:46.919Z,4.42
2022-12-08T19:45:22.110Z,4.45
2022-12-08T19:47:50.611Z,4.64
2022-12-08T19:50:36.683Z,4.52
2022-12-08T19:53:15.553Z,4.49
2022-12-08T19:55:44.374Z,4.48
2022-12-08T19:58:11.895Z,4.51
2022-12-08T20:00:41.280Z,4.53
2022-12-08T20:03:09.041Z,4.54
2022-12-08T20:05:37.330Z,4.50
2022-12-08T20:08:05.184Z,4.64
2022-12-08T20:10:38.825Z,4.67
2022-12-08T20:13:27.251Z,4.63
2022-12-08T20:15:55.064Z,4.55
2022-12-08T20:18:22.688Z,4.48
2022-12-08T20:20:50.297Z,4.59
2022-12-08T20:23:17.969Z,4.69
2022-12-08T20:25:47.759Z,4.38
2022-12-08T20:28:15.601Z,4.65
2022-12-08T20:30:46.788Z,4.55
2022-12-08T20:33:19.473Z,4.64
2022-12-08T20:35:47.810Z,4.70
